Time;durP1;ratioP1;P1;durP2;ratioP2;P2;SDS_P1;SDS_P2;PMS_P1;PMS_P2;Temp;Humidity;BMP_temperature;BMP_pressure;BME280_temperature;BME280_humidity;BME280_pressure;Samples;Min_cycle;Max_cycle;Signal;HPM_P1;HPM_P2
2022/09/05 00:00:07;;;;;;;4.05;2.85;;;16.20;99.90;;;14.43;83.37;100819.69;10327999;28;98333;-92
2022/09/05 00:05:16;;;;;;;5.70;3.30;;;16.10;99.90;;;14.29;83.00;100821.28;10361262;28;96645;-92
2022/09/05 00:10:59;;;;;;;4.05;2.92;;;15.90;99.90;;;14.17;83.09;100826.19;10356029;28;96808;-92
2022/09/05 00:16:49;;;;;;;5.07;2.85;;;15.70;99.90;;;14.12;83.33;100841.91;10362623;28;97634;-91
2022/09/05 00:22:17;;;;;;;3.40;2.95;;;15.70;99.90;;;14.08;83.18;100834.41;10376397;28;98256;-91
2022/09/05 00:28:18;;;;;;;5.05;2.90;;;15.70;99.90;;;14.02;83.21;100830.59;10359189;28;96605;-90
2022/09/05 00:34:13;;;;;;;3.80;3.00;;;15.60;99.90;;;13.96;83.24;100812.59;10349121;28;96730;-91
2022/09/05 00:39:20;;;;;;;4.50;2.90;;;15.50;99.90;;;13.93;83.19;100824.47;10349079;28;96934;-91
2022/09/05 00:44:30;;;;;;;4.07;2.88;;;15.50;99.90;;;13.95;83.15;100826.16;10355944;28;96694;-91
2022/09/05 00:50:09;;;;;;;5.27;3.00;;;15.50;99.90;;;13.84;83.12;100811.31;10355861;28;99111;-91
2022/09/05 00:55:24;;;;;;;4.53;3.20;;;15.50;99.90;;;13.81;83.29;100827.72;10326648;28;96742;-91
2022/09/05 01:00:53;;;;;;;3.70;3.00;;;15.40;99.90;;;13.75;83.32;100823.06;10341690;28;98645;-91
2022/09/05 01:06:39;;;;;;;5.60;3.20;;;15.40;99.90;;;13.72;83.30;100826.06;10333395;28;98105;-91
2022/09/05 01:12:17;;;;;;;4.00;2.75;;;15.30;99.90;;;13.67;83.54;100823.91;10372253;28;96621;-91
2022/09/05 01:17:44;;;;;;;4.05;3.25;;;15.30;99.90;;;13.64;83.78;100818.94;10371028;28;96804;-90
2022/09/05 01:23:16;;;;;;;4.43;3.30;;;15.30;99.90;;;13.63;83.75;100819.94;10356276;28;96696;-90
2022/09/05 01:28:28;;;;;;;3.63;3.20;;;15.30;99.90;;;13.58;83.85;100822.28;10350349;28;96685;-91
2022/09/05 01:34:34;;;;;;;4.72;3.60;;;15.20;99.90;;;13.48;83.90;100810.97;10350982;28;96736;-91
2022/09/05 01:40:17;;;;;;;4.80;3.70;;;15.10;99.90;;;13.44;84.19;100818.50;10332125;28;96771;-91
2022/09/05 01:45:39;;;;;;;4.03;3.13;;;15.10;99.90;;;13.40;84.05;100819.84;10339462;28;96793;-91
2022/09/05 01:51:27;;;;;;;4.00;3.53;;;15.00;99.90;;;13.36;84.01;100815.84;10355966;28;96585;-91
2022/09/05 01:56:51;;;;;;;3.90;3.10;;;15.00;99.90;;;13.31;84.09;100834.19;10352400;28;98490;-90
2022/09/05 02:02:25;;;;;;;4.38;3.67;;;14.90;99.90;;;13.20;84.08;100823.88;10367820;28;96655;-91
2022/09/05 02:08:12;;;;;;;4.57;3.80;;;14.90;99.90;;;13.10;84.18;100818.69;10373037;28;96645;-90
2022/09/05 02:13:35;;;;;;;4.60;3.60;;;14.80;99.90;;;13.05;84.54;100827.22;10234519;28;97409;-90
2022/09/05 02:19:08;;;;;;;4.43;3.73;;;14.70;99.90;;;13.00;84.73;100826.03;10374904;28;97527;-91
2022/09/05 02:24:23;;;;;;;4.93;3.20;;;14.60;99.90;;;12.95;84.69;100818.53;10363036;28;97165;-91
2022/09/05 02:30:00;;;;;;;3.90;3.50;;;14.60;99.90;;;12.86;84.89;100822.22;10378364;28;96938;-90
2022/09/05 02:35:39;;;;;;;3.57;3.23;;;14.50;99.90;;;12.81;84.80;100821.91;10335007;28;97094;-91
2022/09/05 02:40:56;;;;;;;4.47;3.70;;;14.40;99.90;;;12.75;85.14;100825.22;10358748;28;96666;-90
2022/09/05 02:46:35;;;;;;;4.10;3.70;;;14.40;99.90;;;12.72;85.23;100828.25;10344098;28;97391;-90
2022/09/05 02:51:49;;;;;;;4.00;3.50;;;14.40;99.90;;;12.66;85.22;100826.25;10377839;28;96875;-91
2022/09/05 02:57:54;;;;;;;5.73;3.93;;;14.30;99.90;;;12.61;85.70;100836.56;10362963;28;97321;-91
2022/09/05 03:03:26;;;;;;;4.30;3.90;;;14.30;99.90;;;12.51;85.89;100837.53;10350444;28;96748;-90
2022/09/05 03:09:02;;;;;;;5.47;3.87;;;14.10;99.90;;;12.51;86.28;100839.38;10344170;28;96686;-91
2022/09/05 03:15:17;;;;;;;3.87;3.47;;;14.10;99.90;;;12.54;86.64;100836.41;10377435;28;96837;-91
2022/09/05 03:20:50;;;;;;;5.20;3.67;;;14.10;99.90;;;12.55;86.76;100833.56;10366708;28;97075;-91
2022/09/05 03:26:49;;;;;;;4.10;3.70;;;14.20;99.90;;;12.57;86.94;100842.22;10356281;28;97277;-91
2022/09/05 03:32:31;;;;;;;5.13;3.87;;;14.20;99.90;;;12.58;86.70;100846.53;10372651;28;97531;-90
2022/09/05 03:37:56;;;;;;;4.47;3.47;;;14.20;99.90;;;12.56;86.83;100853.88;10376509;28;97444;-91
2022/09/05 03:43:20;;;;;;;5.63;3.70;;;14.20;99.90;;;12.52;86.70;100851.69;10355381;28;97185;-90
2022/09/05 03:48:41;;;;;;;4.50;3.90;;;14.20;99.90;;;12.49;86.74;100852.88;10376138;28;96529;-91
2022/09/05 03:54:06;;;;;;;;;;;14.10;99.90;;;12.47;86.69;100862.84;10377245;28;96540;-91
2022/09/05 03:59:55;;;;;;;5.10;4.00;;;14.10;99.90;;;12.44;86.83;100870.34;10375496;28;96877;-91
2022/09/05 04:05:45;;;;;;;6.37;4.43;;;14.10;99.90;;;12.41;86.75;100866.16;10353462;28;98758;-90
2022/09/05 04:11:26;;;;;;;6.43;4.33;;;14.10;99.90;;;12.37;86.92;100872.00;10358833;28;96829;-92
2022/09/05 04:16:58;;;;;;;5.63;4.33;;;14.10;99.90;;;12.27;86.91;100878.31;10372628;28;98469;-93
2022/09/05 04:22:23;;;;;;;;;;;14.00;99.90;;;12.26;87.10;100895.28;10340717;28;96733;-92
2022/09/05 04:28:34;;;;;;;5.53;4.20;;;13.90;99.90;;;12.23;87.47;100897.44;10359701;28;97512;-93
2022/09/05 04:34:06;;;;;;;4.87;3.70;;;13.90;99.90;;;12.28;88.04;100903.13;10322258;28;97502;-92
2022/09/05 04:39:18;;;;;;;5.47;4.10;;;13.90;99.90;;;12.38;88.32;100900.34;10347763;28;96944;-94
2022/09/05 04:44:50;;;;;;;5.63;4.00;;;14.00;99.90;;;12.47;88.55;100902.00;10378549;28;96624;-93
2022/09/05 04:50:13;;;;;;;9.03;5.30;;;14.10;99.90;;;12.58;88.56;100910.53;10362254;28;96756;-94
2022/09/05 04:55:31;;;;;;;10.03;6.00;;;14.20;99.90;;;12.73;88.42;100909.91;10308465;28;96619;-94
2022/09/05 05:01:02;;;;;;;6.27;4.83;;;14.30;99.90;;;12.87;88.42;100914.56;10341620;28;96687;-94
2022/09/05 05:06:38;;;;;;;4.97;3.93;;;14.50;99.90;;;13.01;88.52;100919.25;10349605;28;96577;-94
2022/09/05 05:12:03;;;;;;;4.93;3.63;;;14.60;99.90;;;13.16;88.73;100929.28;10359796;28;96601;-94
2022/09/05 05:17:41;;;;;;;6.23;3.90;;;14.80;99.90;;;13.33;88.37;100925.63;10336519;28;96636;-94
2022/09/05 05:23:18;;;;;;;7.00;3.70;;;14.90;99.90;;;13.46;88.03;100925.94;10367128;28;96901;-94
2022/09/05 05:28:51;;;;;;;5.03;3.90;;;15.00;99.90;;;13.60;87.73;100935.09;10355811;28;98305;-94
2022/09/05 05:33:58;;;;;;;5.37;3.93;;;15.20;99.90;;;13.72;87.61;100931.06;10375732;28;98506;-94
2022/09/05 05:39:26;;;;;;;6.47;4.10;;;15.30;99.90;;;13.86;86.98;100932.22;10321451;28;96749;-94
2022/09/05 05:44:35;;;;;;;6.82;3.58;;;15.40;99.90;;;13.98;86.97;100930.84;10338827;28;97101;-94
2022/09/05 05:50:02;;;;;;;5.22;3.55;;;15.60;99.90;;;14.13;86.81;100931.78;10341392;28;96674;-94
2022/09/05 05:55:50;;;;;;;4.90;3.78;;;15.70;99.90;;;14.26;86.10;100933.91;10341585;28;98118;-94
2022/09/05 06:01:25;;;;;;;4.82;3.47;;;15.80;99.90;;;14.43;85.83;100940.84;10359652;28;96760;-94
2022/09/05 06:07:01;;;;;;;9.70;3.38;;;16.00;99.90;;;14.62;85.57;100938.75;10358652;28;96541;-94
2022/09/05 06:12:38;;;;;;;10.32;4.60;;;16.20;99.90;;;14.82;85.48;100939.16;10356047;28;96524;-94
2022/09/05 06:18:40;;;;;;;9.93;3.92;;;16.40;99.90;;;15.06;85.67;100936.31;10361525;28;96541;-94
2022/09/05 06:24:21;;;;;;;6.20;4.18;;;16.60;99.90;;;15.27;85.58;100939.13;10361550;28;97458;-94
2022/09/05 06:29:55;;;;;;;6.50;3.45;;;16.80;99.90;;;15.50;85.37;100930.22;10333272;28;96815;-94
2022/09/05 06:35:47;;;;;;;6.95;3.75;;;17.00;99.90;;;15.77;84.89;100936.84;10307232;28;96611;-93
2022/09/05 06:41:21;;;;;;;5.18;3.17;;;17.30;99.90;;;16.03;84.29;100937.22;10328103;28;96534;-94
2022/09/05 06:46:33;;;;;;;5.13;2.88;;;17.60;99.90;;;16.28;83.36;100943.13;10374061;28;96393;-94
2022/09/05 06:52:42;;;;;;;7.85;3.72;;;17.80;99.90;;;16.56;82.23;100940.59;10343709;28;96425;-94
2022/09/05 06:58:10;;;;;;;3.63;2.85;;;18.10;99.90;;;16.82;81.30;100934.69;10354144;28;97448;-95
2022/09/05 07:03:22;;;;;;;3.13;2.42;;;18.40;99.90;;;17.06;81.18;100930.78;10349900;28;97524;-94
2022/09/05 07:09:03;;;;;;;7.20;2.88;;;18.60;99.90;;;17.33;80.17;100947.13;10363222;28;96451;-94
2022/09/05 07:14:23;;;;;;;8.95;3.03;;;18.80;99.90;;;17.57;78.80;100929.75;10357103;28;97054;-94
2022/09/05 07:19:42;;;;;;;3.57;3.00;;;19.10;99.90;;;17.90;78.46;100944.28;10345709;28;96623;-95
2022/09/05 07:24:48;;;;;;;5.85;3.03;;;19.40;99.90;;;18.15;76.92;100943.78;10360280;28;97494;-94
2022/09/05 07:29:58;;;;;;;7.38;2.88;;;19.70;99.90;;;18.43;76.71;100935.66;10345121;28;97202;-94
2022/09/05 07:35:07;;;;;;;5.70;2.85;;;19.90;99.90;;;18.73;74.85;100938.88;10344438;28;96531;-94
2022/09/05 07:40:18;;;;;;;3.70;2.53;;;20.20;99.90;;;19.11;73.86;100938.31;10376005;28;96499;-95
2022/09/05 07:45:29;;;;;;;4.55;2.50;;;20.70;99.90;;;20.31;73.54;100932.56;10340191;28;99256;-94
2022/09/05 07:50:57;;;;;;;3.90;1.88;;;21.40;99.90;;;21.67;68.03;100927.75;10355107;28;98213;-95
2022/09/05 07:56:54;;;;;;;2.45;1.85;;;22.00;99.90;;;21.84;63.40;100924.22;10362489;28;96576;-92
2022/09/05 08:02:17;;;;;;;3.65;2.38;;;22.40;97.70;;;21.62;62.51;100923.81;10349108;28;97648;-94
2022/09/05 08:07:30;;;;;;;4.93;2.30;;;22.60;96.90;;;21.45;61.40;100919.22;10343318;28;96544;-93
2022/09/05 08:13:08;;;;;;;3.38;2.17;;;22.60;95.40;;;21.43;62.03;100916.72;10361683;28;96788;-93
2022/09/05 08:18:53;;;;;;;9.32;2.85;;;22.70;95.20;;;21.49;61.41;100926.66;10359583;28;96523;-93
2022/09/05 08:24:31;;;;;;;7.53;2.60;;;22.90;94.50;;;21.46;60.06;100910.88;10374351;28;96511;-92
2022/09/05 08:30:00;;;;;;;4.47;2.30;;;23.00;93.50;;;21.55;60.83;100917.66;10338333;28;96773;-93
2022/09/05 08:35:39;;;;;;;4.40;2.00;;;23.10;93.20;;;21.71;58.94;100910.00;10349995;28;96497;-94
2022/09/05 08:41:25;;;;;;;3.80;1.88;;;23.30;92.20;;;21.76;58.24;100907.44;10355811;28;98405;-94
2022/09/05 08:47:20;;;;;;;4.97;2.00;;;23.30;91.30;;;21.90;58.27;100898.97;10359774;28;98095;-93
2022/09/05 08:52:50;;;;;;;2.58;2.00;;;23.40;90.80;;;22.07;59.13;100898.34;10313659;28;96632;-93
2022/09/05 08:58:33;;;;;;;4.15;1.77;;;23.50;91.10;;;22.29;56.75;100894.16;10339409;28;98418;-94
2022/09/05 09:04:23;;;;;;;2.97;2.15;;;23.80;90.20;;;22.48;56.85;100894.13;10288782;28;96658;-95
2022/09/05 09:10:18;;;;;;;3.90;1.95;;;24.00;89.30;;;22.59;54.29;100882.50;10275814;28;97592;-93
2022/09/05 09:16:26;;;;;;;5.40;2.17;;;24.10;86.90;;;22.83;55.59;100876.09;10263514;28;96651;-94
2022/09/05 09:21:59;;;;;;;4.07;1.92;;;24.30;87.20;;;23.12;54.79;100877.13;10217171;28;97592;-92
2022/09/05 09:27:17;;;;;;;2.17;1.60;;;24.60;86.30;;;23.28;52.69;100862.06;10294796;28;98444;-95
2022/09/05 09:32:45;;;;;;;3.47;2.20;;;24.90;83.70;;;23.33;51.92;100864.03;10277820;28;96815;-94
2022/09/05 09:38:10;;;;;;;3.03;2.13;;;24.90;81.90;;;23.59;52.71;100857.31;10273641;28;96833;-94
2022/09/05 09:43:38;;;;;;;4.82;2.40;;;25.10;81.60;;;23.74;51.13;100861.19;10289290;28;98065;-94
2022/09/05 09:49:19;;;;;;;4.35;2.40;;;25.30;80.70;;;23.93;50.12;100853.75;10281207;28;96762;-94
2022/09/05 09:55:06;;;;;;;2.88;2.47;;;25.50;78.30;;;24.13;49.78;100853.31;10293824;28;96941;-91
2022/09/05 10:00:23;;;;;;;3.65;2.28;;;25.70;76.60;;;24.23;49.29;100847.25;10317492;28;96622;-93
2022/09/05 10:06:04;;;;;;;2.20;1.88;;;25.70;75.40;;;24.35;47.05;100847.22;10338733;28;96674;-94
2022/09/05 10:12:04;;;;;;;6.13;2.08;;;25.90;74.00;;;24.58;48.33;100843.59;10358968;28;97913;-93
2022/09/05 10:17:42;;;;;;;4.90;2.20;;;26.10;74.30;;;24.93;47.49;100835.22;10355630;28;96660;-96
2022/09/05 10:23:39;;;;;;;2.95;1.63;;;26.40;73.20;;;25.20;45.78;100827.25;10357336;28;96471;-93
2022/09/05 10:29:35;;;;;;;3.03;2.03;;;26.70;70.70;;;25.46;46.29;100817.53;10317795;28;96662;-94
2022/09/05 10:34:57;;;;;;;5.28;2.03;;;27.00;71.00;;;25.44;45.33;100816.97;10346367;28;96862;-95
2022/09/05 10:40:26;;;;;;;3.30;2.03;;;27.10;70.10;;;25.36;45.66;100805.44;10382286;28;96499;-94
2022/09/05 10:45:55;;;;;;;3.60;2.00;;;27.20;69.70;;;25.35;45.44;100811.94;10351687;28;96623;-95
2022/09/05 10:51:31;;;;;;;2.03;1.60;;;27.10;69.30;;;25.60;45.06;100813.38;10362209;28;96558;-93
2022/09/05 10:56:49;;;;;;;3.25;1.55;;;27.30;69.20;;;25.80;44.64;100812.84;10341826;28;96615;-94
2022/09/05 11:02:06;;;;;;;4.63;1.88;;;27.50;68.10;;;25.80;44.83;100791.91;10348025;28;96762;-93
2022/09/05 11:07:57;;;;;;;2.22;1.65;;;27.60;67.30;;;25.66;44.92;100785.13;10383160;28;96540;-93
2022/09/05 11:13:15;;;;;;;3.30;1.95;;;27.50;67.30;;;25.42;44.98;100794.63;10383554;28;96717;-93
2022/09/05 11:18:37;;;;;;;4.00;2.00;;;27.30;67.40;;;25.19;45.82;100788.34;10383310;28;97522;-93
2022/09/05 11:24:23;;;;;;;2.57;1.73;;;27.00;67.40;;;24.93;46.12;100787.09;10367601;28;96795;-93
2022/09/05 11:29:54;;;;;;;6.50;2.03;;;26.70;67.60;;;24.83;46.71;100784.25;10380753;28;96816;-94
2022/09/05 11:35:21;;;;;;;2.80;1.92;;;26.50;68.00;;;24.73;46.26;100778.63;10372094;28;96593;-93
2022/09/05 11:41:40;;;;;;;5.65;2.00;;;26.40;67.50;;;24.58;46.18;100781.91;10386446;28;96722;-93
2022/09/05 11:47:21;;;;;;;2.80;1.90;;;26.20;67.70;;;24.46;46.58;100775.72;10367019;28;96475;-94
2022/09/05 11:52:50;;;;;;;3.83;2.22;;;26.10;67.90;;;24.34;47.09;100780.38;10365528;28;96766;-94
2022/09/05 11:58:22;;;;;;;3.45;1.95;;;26.00;68.30;;;24.23;47.62;100773.94;10365161;28;98570;-93
2022/09/05 12:04:46;;;;;;;3.97;2.13;;;25.90;68.30;;;24.13;46.99;100773.78;10378716;28;96602;-94
2022/09/05 12:10:46;;;;;;;2.95;2.10;;;25.80;68.20;;;24.09;47.35;100778.03;10324137;28;96620;-94
2022/09/05 12:15:50;;;;;;;3.75;1.75;;;25.70;68.20;;;24.06;46.85;100771.19;10322474;28;96488;-94
2022/09/05 12:21:22;;;;;;;2.70;1.88;;;25.70;67.40;;;24.06;46.50;100768.50;10334592;28;96605;-95
2022/09/05 12:26:47;;;;;;;3.05;1.80;;;25.80;67.20;;;24.12;48.20;100756.66;10363716;28;96541;-96
2022/09/05 12:32:19;;;;;;;3.03;2.22;;;25.70;68.70;;;24.18;49.73;100761.09;10354584;28;96597;-95
2022/09/05 12:38:04;;;;;;;3.10;1.95;;;25.80;69.70;;;24.16;47.04;100755.06;10367918;28;96689;-94
2022/09/05 12:43:27;;;;;;;4.07;2.13;;;25.80;68.40;;;24.17;47.06;100745.88;10376312;28;97578;-96
2022/09/05 12:49:15;;;;;;;3.53;1.90;;;25.80;67.70;;;24.18;47.41;100736.66;10376275;28;96371;-95
2022/09/05 12:54:57;;;;;;;5.20;2.20;;;25.90;67.90;;;24.27;48.24;100737.09;10344066;28;96662;-96
2022/09/05 13:00:20;;;;;;;3.83;2.15;;;25.90;68.20;;;24.27;47.27;100732.47;10369214;28;96594;-96
2022/09/05 13:06:03;;;;;;;2.50;1.95;;;25.90;67.70;;;24.24;47.90;100724.00;10355459;28;96695;-94
2022/09/05 13:11:08;;;;;;;5.63;2.17;;;25.90;67.70;;;24.17;48.45;100723.31;10339858;28;98274;-93
2022/09/05 13:16:31;;;;;;;6.72;2.60;;;25.80;68.40;;;24.09;48.05;100710.97;10344038;28;96614;-92
2022/09/05 13:21:44;;;;;;;3.08;2.00;;;25.70;69.00;;;24.04;48.75;100711.69;10355657;28;96465;-92
2022/09/05 13:26:57;;;;;;;3.70;1.95;;;25.70;69.30;;;23.99;49.52;100721.63;10341207;28;96776;-92
2022/09/05 13:32:48;;;;;;;2.33;1.83;;;25.60;69.80;;;24.04;50.75;100713.59;10378511;28;96624;-95
2022/09/05 13:38:40;;;;;;;2.30;1.90;;;25.50;70.90;;;24.11;47.88;100703.44;10313889;28;96590;-96
2022/09/05 13:43:50;;;;;;;4.35;1.90;;;25.60;68.50;;;24.10;46.80;100699.03;10340507;28;96847;-92
2022/09/05 13:49:24;;;;;;;3.17;2.08;;;25.70;67.60;;;24.03;46.86;100701.09;10311617;28;97445;-93
2022/09/05 13:54:58;;;;;;;2.95;2.20;;;25.60;67.50;;;23.95;46.83;100696.06;10341882;28;98908;-93
2022/09/05 14:00:10;;;;;;;3.53;2.60;;;25.50;67.10;;;23.95;49.74;100687.94;10299570;28;96721;-91
2022/09/05 14:05:51;;;;;;;4.88;2.17;;;25.50;69.30;;;24.10;47.32;100680.03;10359853;28;97467;-92
2022/09/05 14:10:54;;;;;;;5.03;2.05;;;25.60;68.10;;;24.36;45.39;100678.63;10339049;28;96458;-96
2022/09/05 14:16:10;;;;;;;3.50;2.42;;;25.80;66.40;;;24.57;44.35;100674.31;10379654;28;96757;-93
2022/09/05 14:21:17;;;;;;;4.30;2.15;;;26.10;64.90;;;24.75;45.89;100662.34;10344045;28;96660;-93
2022/09/05 14:26:46;;;;;;;5.20;2.30;;;26.20;65.60;;;24.99;44.90;100661.03;10331555;28;96658;-90
2022/09/05 14:32:16;;;;;;;2.67;2.20;;;26.50;65.30;;;25.08;43.71;100665.00;10324878;28;96628;-93
2022/09/05 14:37:58;;;;;;;4.10;2.33;;;26.60;64.00;;;25.04;44.29;100657.56;10382953;28;96581;-96
2022/09/05 14:43:50;;;;;;;3.47;1.90;;;26.60;64.00;;;24.92;44.86;100660.41;10380097;28;97178;-96
2022/09/05 14:49:27;;;;;;;6.80;2.38;;;26.50;64.60;;;24.90;44.30;100648.16;10379538;28;96509;-96
2022/09/05 14:54:38;;;;;;;4.22;2.25;;;26.60;64.20;;;25.07;44.85;100649.78;10374560;28;96622;-96
2022/09/05 15:00:13;;;;;;;3.25;2.20;;;26.80;64.00;;;25.15;44.01;100642.25;10355513;28;96679;-96
2022/09/05 15:05:48;;;;;;;3.58;2.15;;;27.00;64.00;;;25.46;43.99;100651.56;10335177;28;97820;-92
2022/09/05 15:10:57;;;;;;;2.92;2.30;;;27.30;63.50;;;25.56;44.72;100646.25;10342575;28;96689;-92
2022/09/05 15:16:23;;;;;;;3.30;2.85;;;27.40;64.00;;;25.60;44.20;100639.19;10361779;28;96643;-95
2022/09/05 15:21:36;;;;;;;4.07;2.42;;;27.40;64.30;;;25.67;45.41;100642.56;10338862;28;97268;-94
2022/09/05 15:26:56;;;;;;;4.13;2.70;;;27.40;64.50;;;25.67;47.33;100631.69;10350886;28;96711;-94
2022/09/05 15:32:22;;;;;;;4.47;2.38;;;27.40;66.10;;;25.69;48.27;100632.22;10363851;28;96607;-94
2022/09/05 15:37:39;;;;;;;5.55;2.28;;;27.40;66.90;;;25.78;47.27;100638.88;10362723;28;96674;-94
2022/09/05 15:42:56;;;;;;;3.97;2.30;;;27.50;66.00;;;25.88;44.36;100632.72;10389397;28;96407;-94
2022/09/05 15:48:11;;;;;;;2.33;2.10;;;27.80;63.90;;;26.09;45.14;100631.00;10369894;28;97007;-92
2022/09/05 15:53:35;;;;;;;2.88;2.40;;;28.00;63.90;;;26.08;45.05;100626.59;10380153;28;97508;-92
2022/09/05 15:58:55;;;;;;;3.60;2.40;;;28.00;63.60;;;26.00;47.23;100627.91;10364654;28;96998;-93
2022/09/05 16:03:59;;;;;;;3.75;3.15;;;27.80;65.20;;;25.90;47.27;100625.09;10317871;28;97007;-93
2022/09/05 16:09:41;;;;;;;4.80;2.65;;;27.70;66.20;;;25.67;48.55;100617.22;10320704;28;96576;-93
2022/09/05 16:15:10;;;;;;;3.35;2.20;;;27.40;68.00;;;25.46;49.08;100617.03;10347708;28;96791;-93
2022/09/05 16:20:45;;;;;;;8.73;2.90;;;27.10;68.00;;;25.23;49.17;100617.31;10358278;28;96638;-92
2022/09/05 16:26:20;;;;;;;6.10;3.08;;;26.70;69.10;;;24.90;51.39;100613.63;10340681;28;97511;-92
2022/09/05 16:31:33;;;;;;;7.03;3.20;;;26.40;71.20;;;24.61;52.40;100607.53;10347079;28;97012;-93
2022/09/05 16:36:56;;;;;;;6.57;4.33;;;26.10;71.90;;;24.24;52.48;100605.34;10359703;28;96595;-93
2022/09/05 16:42:42;;;;;;;9.00;4.18;;;25.70;72.50;;;23.90;54.18;100614.56;10353485;28;97189;-92
2022/09/05 16:48:09;;;;;;;9.13;3.08;;;25.30;74.00;;;23.55;54.58;100609.28;10324572;28;98392;-91
2022/09/05 16:53:35;;;;;;;12.60;3.58;;;24.90;74.60;;;23.21;55.55;100612.75;10357837;28;97752;-90
2022/09/05 16:58:56;;;;;;;6.45;2.92;;;24.60;75.50;;;22.91;56.67;100617.50;10351235;28;96654;-90
2022/09/05 17:04:23;;;;;;;7.10;3.22;;;24.30;76.60;;;22.61;57.42;100617.66;10343451;28;98526;-90
2022/09/05 17:09:42;;;;;;;6.25;2.58;;;24.00;77.20;;;22.32;57.38;100619.44;10355073;28;97733;-91
2022/09/05 17:14:54;;;;;;;3.95;2.60;;;23.80;77.20;;;22.06;57.09;100620.66;10330166;28;96515;-90
2022/09/05 17:19:58;;;;;;;4.35;2.58;;;23.60;76.90;;;21.85;56.85;100630.16;10337917;28;97296;-93
2022/09/05 17:25:18;;;;;;;3.65;2.30;;;23.40;76.70;;;21.60;57.84;100631.16;10333004;28;96678;-90
2022/09/05 17:31:00;;;;;;;4.55;2.53;;;23.20;77.10;;;21.33;57.82;100633.38;10356584;28;96704;-90
2022/09/05 17:36:52;;;;;;;4.35;2.10;;;22.90;77.20;;;21.10;57.98;100634.03;10333896;28;98022;-90
2022/09/05 17:42:39;;;;;;;4.68;2.90;;;22.60;77.60;;;20.89;58.26;100637.22;10376253;28;96612;-89
2022/09/05 17:47:52;;;;;;;4.20;2.97;;;22.40;77.90;;;20.74;58.72;100634.88;10344851;28;98762;-90
2022/09/05 17:53:01;;;;;;;5.88;3.20;;;22.20;78.70;;;20.63;59.51;100642.88;10336920;28;97297;-90
2022/09/05 17:58:31;;;;;;;5.68;3.72;;;22.00;79.40;;;20.46;60.31;100650.75;10363521;28;96893;-89
2022/09/05 18:03:53;;;;;;;5.47;3.13;;;21.90;80.40;;;20.32;60.47;100658.09;10350717;28;97472;-90
2022/09/05 18:08:56;;;;;;;5.78;3.28;;;21.80;80.80;;;20.19;61.25;100669.00;10352878;28;98996;-89
2022/09/05 18:14:10;;;;;;;4.35;3.33;;;21.60;81.40;;;20.07;62.09;100673.44;10328179;28;96675;-89
2022/09/05 18:19:52;;;;;;;3.90;3.00;;;21.50;82.20;;;19.97;62.54;100674.78;10361126;28;97515;-91
2022/09/05 18:25:24;;;;;;;3.65;3.17;;;21.40;82.70;;;19.90;62.96;100673.97;10354790;28;97002;-89
2022/09/05 18:30:34;;;;;;;3.25;2.75;;;21.40;83.00;;;19.81;63.38;100677.97;10375233;28;96569;-89
2022/09/05 18:35:54;;;;;;;5.55;2.90;;;21.30;83.60;;;19.72;63.72;100677.41;10356348;28;97803;-89
2022/09/05 18:41:11;;;;;;;3.63;2.70;;;21.20;83.90;;;19.67;63.93;100679.09;10359432;28;96534;-89
2022/09/05 18:46:27;;;;;;;3.22;2.90;;;21.10;84.10;;;19.59;63.97;100671.25;10368561;28;97982;-89
2022/09/05 18:51:35;;;;;;;6.50;3.13;;;21.10;84.40;;;19.55;64.10;100678.91;10317697;28;96594;-89
2022/09/05 18:56:57;;;;;;;3.03;2.72;;;21.00;84.50;;;19.45;64.17;100687.47;10350635;28;96725;-89
2022/09/05 19:02:40;;;;;;;;;;;20.90;84.60;;;19.35;64.08;100688.97;10334817;28;96888;-89
2022/09/05 19:07:55;;;;;;;4.10;2.70;;;20.90;84.90;;;19.24;64.59;100688.56;10351628;28;96589;-89
2022/09/05 19:13:14;;;;;;;3.80;3.05;;;20.80;84.90;;;19.14;67.05;100676.63;10359781;28;96719;-89
2022/09/05 19:18:22;;;;;;;3.97;3.10;;;20.60;85.20;;;19.09;67.54;100687.19;10363484;28;98254;-89
2022/09/05 19:23:34;;;;;;;3.97;3.25;;;20.50;85.60;;;18.93;67.48;100681.22;10331441;28;96575;-90
2022/09/05 19:28:48;;;;;;;5.32;3.50;;;20.50;86.40;;;18.80;67.91;100692.00;10340375;28;96875;-88
2022/09/05 19:34:25;;;;;;;4.65;3.28;;;20.40;87.30;;;18.61;67.80;100682.91;10348630;28;98943;-89
2022/09/05 19:39:51;;;;;;;4.20;3.50;;;20.20;88.00;;;18.50;67.64;100674.63;10346803;28;97863;-89
2022/09/05 19:45:25;;;;;;;6.10;3.28;;;20.00;88.20;;;18.45;67.48;100677.94;10346125;28;98643;-89
2022/09/05 19:50:48;;;;;;;5.68;3.33;;;19.90;88.20;;;18.37;68.10;100681.66;10348320;28;96681;-89
2022/09/05 19:55:52;;;;;;;3.92;3.10;;;19.90;88.80;;;18.27;68.34;100683.94;10356398;28;97260;-89
2022/09/05 20:01:03;;;;;;;4.82;3.60;;;19.80;89.20;;;18.22;68.61;100678.34;10346642;28;97387;-88
2022/09/05 20:06:37;;;;;;;6.15;3.10;;;19.80;89.60;;;18.25;68.65;100691.41;10355577;28;96648;-89
2022/09/05 20:11:48;;;;;;;3.67;2.90;;;19.80;89.70;;;18.21;68.88;100683.94;10342701;28;97584;-88
2022/09/05 20:16:56;;;;;;;3.85;3.50;;;19.70;90.00;;;18.19;68.95;100686.84;10353986;28;96785;-89
2022/09/05 20:22:06;;;;;;;5.88;3.15;;;19.70;90.10;;;18.22;69.10;100694.47;10357423;28;97619;-89
2022/09/05 20:27:29;;;;;;;3.85;3.00;;;19.70;90.30;;;18.13;69.50;100690.34;10343651;28;98078;-89
2022/09/05 20:32:49;;;;;;;4.53;3.00;;;19.60;90.50;;;18.07;69.85;100702.75;10334829;28;97970;-88
2022/09/05 20:37:55;;;;;;;4.37;3.10;;;19.50;90.80;;;18.00;69.89;100695.72;10356169;28;97590;-89
2022/09/05 20:43:38;;;;;;;3.45;3.15;;;19.40;90.90;;;17.92;69.74;100694.84;10347208;28;97137;-89
2022/09/05 20:48:43;;;;;;;4.10;2.92;;;19.40;91.00;;;17.82;69.79;100682.88;10350723;28;97651;-88
2022/09/05 20:54:07;;;;;;;3.60;2.75;;;19.30;91.10;;;17.79;69.73;100688.63;10350871;28;96747;-89
2022/09/05 20:59:40;;;;;;;7.28;3.08;;;19.30;91.10;;;17.62;70.01;100685.44;10327416;28;96583;-90
2022/09/05 21:04:58;;;;;;;3.85;2.60;;;19.10;91.40;;;17.58;70.49;100697.66;10354942;28;97390;-89
2022/09/05 21:10:21;;;;;;;3.95;2.97;;;19.00;91.40;;;17.48;70.40;100692.63;10342555;28;96668;-88
2022/09/05 21:15:31;;;;;;;3.65;2.75;;;19.00;91.50;;;17.42;70.69;100687.25;10347049;28;96464;-89
2022/09/05 21:21:05;;;;;;;3.63;2.50;;;18.90;91.60;;;17.34;70.93;100697.13;10334387;28;96609;-89
2022/09/05 21:26:28;;;;;;;2.85;2.38;;;18.80;91.70;;;17.26;70.90;100708.03;10337483;28;98484;-90
2022/09/05 21:31:43;;;;;;;3.33;2.35;;;18.80;91.70;;;17.23;70.83;100703.06;10352504;28;98406;-89
2022/09/05 21:36:46;;;;;;;4.72;2.67;;;18.70;91.80;;;17.25;70.58;100703.69;10338932;28;96866;-89
2022/09/05 21:42:08;;;;;;;4.63;2.65;;;18.70;91.80;;;17.22;70.40;100698.72;10343555;28;96616;-89
2022/09/05 21:47:32;;;;;;;4.63;2.83;;;18.70;91.80;;;17.14;70.52;100693.50;10334758;28;97515;-89
2022/09/05 21:52:55;;;;;;;3.42;2.83;;;18.60;91.90;;;17.08;70.69;100699.66;10343458;28;97583;-88
2022/09/05 21:58:18;;;;;;;3.05;2.75;;;18.60;92.20;;;16.95;71.14;100688.88;10350029;28;96830;-88
2022/09/05 22:03:42;;;;;;;3.45;2.70;;;18.40;92.20;;;16.92;71.03;100691.97;10342652;28;98552;-88
2022/09/05 22:08:45;;;;;;;3.08;2.67;;;18.40;92.30;;;16.88;71.25;100694.19;10338860;28;97421;-89
2022/09/05 22:14:08;;;;;;;5.07;2.67;;;18.40;92.40;;;16.85;71.39;100692.75;10358590;28;96664;-89
2022/09/05 22:19:21;;;;;;;9.38;2.78;;;18.30;92.30;;;16.80;71.05;100678.25;10341988;28;98314;-89
2022/09/05 22:24:29;;;;;;;3.67;2.30;;;18.30;92.40;;;16.82;71.18;100682.38;10328586;28;97237;-89
2022/09/05 22:29:35;;;;;;;7.32;2.70;;;18.30;92.40;;;16.78;71.11;100686.47;10330994;28;98484;-89
2022/09/05 22:34:38;;;;;;;3.17;2.65;;;18.30;92.40;;;16.77;71.10;100682.16;10353889;28;96738;-89